Time;durP1;ratioP1;P1;durP2;ratioP2;P2;SDS_P1;SDS_P2;PMS_P1;PMS_P2;Temp;Humidity;BMP_temperature;BMP_pressure;BME280_temperature;BME280_humidity;BME280_pressure;Samples;Min_cycle;Max_cycle;Signal;HPM_P1;HPM_P2
2024/02/04 00:01:46;;;;;;;2.85;1.23;;;7.70;99.90;;;7.62;100.00;101137.81;6185238;23;20165;-64
2024/02/04 00:04:15;;;;;;;2.60;1.88;;;7.70;99.90;;;7.59;100.00;101149.78;6185110;23;20148;-62
2024/02/04 00:06:45;;;;;;;1.70;1.15;;;7.70;99.90;;;7.59;100.00;101155.16;6185351;23;20587;-64
2024/02/04 00:09:14;;;;;;;0.80;0.60;;;7.60;1.00;;;7.65;100.00;101151.75;6185001;23;20178;-63
2024/02/04 00:11:43;;;;;;;0.90;0.55;;;7.60;1.00;;;7.78;100.00;101154.72;6185044;23;20232;-64
2024/02/04 00:14:11;;;;;;;1.00;0.68;;;7.70;1.00;;;7.80;100.00;101162.59;6184858;23;20149;-65
2024/02/04 00:16:40;;;;;;;2.53;0.70;;;7.80;1.00;;;7.85;100.00;101154.81;6185193;23;20224;-63
2024/02/04 00:19:08;;;;;;;1.10;0.50;;;7.80;1.00;;;7.82;100.00;101144.41;6184859;23;20634;-62
2024/02/04 00:21:37;;;;;;;6.63;1.25;;;7.80;99.90;;;7.81;100.00;101154.34;6183305;23;20252;-63
2024/02/04 00:24:08;;;;;;;6.05;1.85;;;7.80;99.90;;;7.81;100.00;101159.75;6184866;23;20224;-65
2024/02/04 00:26:36;;;;;;;1.25;1.13;;;7.80;1.00;;;7.77;100.00;101150.34;6184522;23;20224;-57
2024/02/04 00:29:04;;;;;;;0.90;0.80;;;7.80;1.00;;;7.70;100.00;101137.75;6186626;23;20642;-62
2024/02/04 00:31:33;;;;;;;0.80;0.50;;;7.70;99.90;;;7.69;100.00;101161.19;6185336;23;20173;-64
2024/02/04 00:34:01;;;;;;;4.78;1.30;;;7.70;99.90;;;7.64;100.00;101150.09;6187054;23;20653;-64
2024/02/04 00:36:30;;;;;;;1.10;0.82;;;7.60;99.90;;;7.56;100.00;101149.28;6185136;23;20665;-64
2024/02/04 00:38:58;;;;;;;0.80;0.60;;;7.60;99.90;;;7.49;100.00;101142.94;6186535;23;20185;-64
2024/02/04 00:41:28;;;;;;;0.80;0.60;;;7.50;99.90;;;7.40;100.00;101151.06;6184984;23;20664;-63
2024/02/04 00:43:57;;;;;;;0.80;0.60;;;;;;;7.35;100.00;101131.91;6186817;23;20582;-62
2024/02/04 00:46:25;;;;;;;0.80;0.50;;;7.40;17.20;;;7.25;100.00;101123.19;6186594;23;20493;-63
2024/02/04 00:48:54;;;;;;;1.27;0.93;;;7.30;63.10;;;7.14;100.00;101128.09;6186542;23;20188;-64
2024/02/04 00:51:23;;;;;;;1.13;0.70;;;7.20;99.90;;;7.05;100.00;101118.38;6185024;23;20168;-63
2024/02/04 00:53:52;;;;;;;1.20;0.95;;;7.20;99.90;;;6.97;100.00;101122.78;6185011;23;20574;-64
2024/02/04 00:56:21;;;;;;;1.23;1.13;;;7.10;99.90;;;6.89;100.00;101141.63;6185012;23;20171;-62
2024/02/04 00:58:51;;;;;;;0.80;0.50;;;7.00;99.90;;;6.80;100.00;101137.28;6186624;23;20193;-62
2024/02/04 01:01:20;;;;;;;1.80;1.52;;;6.90;99.90;;;6.72;100.00;101144.53;6185042;23;20181;-64
2024/02/04 01:03:49;;;;;;;1.30;1.10;;;6.80;99.90;;;6.70;100.00;101143.88;6186693;23;20154;-64
2024/02/04 01:06:17;;;;;;;1.23;0.80;;;6.80;99.90;;;6.68;100.00;101127.88;6184776;23;20692;-61
2024/02/04 01:08:46;;;;;;;1.08;0.60;;;6.80;99.90;;;6.60;100.00;101125.22;6186763;23;20612;-61
2024/02/04 01:11:14;;;;;;;1.52;0.60;;;6.70;99.90;;;6.53;100.00;101135.00;6186703;23;20161;-63
2024/02/04 01:13:43;;;;;;;2.10;1.02;;;6.70;99.90;;;6.49;100.00;101131.78;6186687;23;20220;-63
2024/02/04 01:16:13;;;;;;;1.52;1.15;;;6.60;99.90;;;6.43;100.00;101111.00;6185056;23;20223;-64
2024/02/04 01:18:42;;;;;;;6.68;1.23;;;6.60;1.00;;;6.42;100.00;101117.38;6187226;23;20201;-62
2024/02/04 01:21:11;;;;;;;0.80;0.50;;;6.50;1.00;;;6.45;100.00;101124.22;6186283;23;20292;-61
2024/02/04 01:23:39;;;;;;;1.10;0.90;;;6.50;1.00;;;6.49;100.00;101134.47;6186809;23;20166;-63
2024/02/04 01:26:08;;;;;;;0.80;0.50;;;6.50;1.00;;;6.52;100.00;101147.59;6185285;23;20165;-64
2024/02/04 01:28:36;;;;;;;1.70;1.55;;;6.50;1.00;;;6.65;100.00;101138.16;6184890;23;20650;-64
2024/02/04 01:31:05;;;;;;;1.88;1.77;;;6.60;1.00;;;6.70;100.00;101144.72;6187031;23;20150;-64
2024/02/04 01:33:35;;;;;;;0.95;0.60;;;6.70;1.00;;;6.73;100.00;101136.28;6184997;23;20189;-63
2024/02/04 01:36:05;;;;;;;4.95;0.60;;;6.70;1.00;;;6.65;100.00;101151.59;6186334;23;20176;-62
2024/02/04 01:38:33;;;;;;;1.63;1.00;;;6.70;99.90;;;6.55;100.00;101133.81;6187292;23;20216;-64
2024/02/04 01:41:02;;;;;;;2.35;1.88;;;6.70;1.00;;;6.33;100.00;101122.91;6188210;23;20662;-63
2024/02/04 01:43:31;;;;;;;4.47;1.55;;;6.60;1.00;;;6.29;100.00;101125.13;6187077;23;20415;-64
2024/02/04 01:45:59;;;;;;;1.33;0.60;;;6.50;1.00;;;6.18;100.00;101125.44;6188100;23;20166;-64
2024/02/04 01:48:28;;;;;;;2.95;1.05;;;6.40;1.00;;;6.09;100.00;101131.81;6187126;23;20188;-62
2024/02/04 01:51:00;;;;;;;1.00;0.90;;;6.30;99.90;;;6.05;100.00;101120.56;6186433;23;20244;-62
2024/02/04 01:53:33;;;;;;;0.80;0.50;;;6.20;99.90;;;6.00;100.00;101122.09;6184839;23;20232;-64
2024/02/04 01:56:03;;;;;;;0.90;0.70;;;6.10;1.00;;;5.97;100.00;101130.47;6184860;23;20162;-64
2024/02/04 01:58:33;;;;;;;0.80;0.50;;;6.10;99.90;;;5.91;100.00;101125.75;6185019;23;20268;-64
2024/02/04 02:01:02;;;;;;;0.90;0.50;;;6.10;99.90;;;5.83;100.00;101114.97;6187091;23;20184;-64
2024/02/04 02:03:33;;;;;;;1.42;1.17;;;6.00;1.00;;;5.90;100.00;101118.72;6184966;23;20171;-63
2024/02/04 02:06:04;;;;;;;0.90;0.80;;;6.00;1.00;;;5.89;100.00;101125.09;6186629;23;20160;-62
2024/02/04 02:08:34;;;;;;;0.80;0.55;;;6.00;1.00;;;5.80;100.00;101131.44;6186423;23;20181;-63
2024/02/04 02:11:12;;;;;;;1.25;0.60;;;6.00;99.90;;;5.80;100.00;101132.28;6209286;23;20168;-64
2024/02/04 02:13:44;;;;;;;1.00;0.60;;;6.00;99.90;;;5.84;100.00;101122.03;6185981;23;20161;-63
2024/02/04 02:16:19;;;;;;;1.70;1.00;;;6.00;1.00;;;5.93;100.00;101110.31;6186443;23;20145;-63
2024/02/04 02:18:55;;;;;;;0.80;0.50;;;6.00;1.00;;;5.84;100.00;101103.22;6186392;23;20192;-64
2024/02/04 02:21:45;;;;;;;0.90;0.60;;;6.00;1.00;;;5.81;100.00;101084.78;6185433;23;20185;-64
2024/02/04 02:24:33;;;;;;;1.20;1.05;;;6.00;46.40;;;5.93;100.00;101089.66;6184973;23;20165;-66
2024/02/04 02:27:02;;;;;;;0.80;0.50;;;6.00;99.90;;;5.84;100.00;101101.38;6184574;23;20252;-65
2024/02/04 02:29:32;;;;;;;0.80;0.55;;;6.00;34.30;;;5.83;100.00;101098.84;6186478;23;20153;-64
2024/02/04 02:32:03;;;;;;;0.80;0.60;;;6.00;57.90;;;5.84;100.00;101116.66;6185284;23;20196;-66
2024/02/04 02:34:32;;;;;;;1.00;0.77;;;6.00;59.00;;;5.86;100.00;101120.00;6186894;23;20154;-65
2024/02/04 02:37:23;;;;;;;0.80;0.50;;;5.90;99.90;;;5.94;100.00;101107.47;6187288;23;20574;-65
2024/02/04 02:40:01;;;;;;;0.90;0.60;;;6.00;64.70;;;5.86;100.00;101098.50;6186327;23;20165;-65
2024/02/04 02:42:32;;;;;;;0.80;0.60;;;6.00;25.30;;;5.94;100.00;101112.00;6185566;23;20161;-63
2024/02/04 02:45:02;;;;;;;0.90;0.60;;;6.00;80.50;;;5.95;100.00;101119.06;6185076;23;20237;-64
2024/02/04 02:47:32;;;;;;;1.10;0.98;;;6.00;81.10;;;6.07;100.00;101113.19;6183430;23;20264;-64
2024/02/04 02:50:02;;;;;;;1.52;1.15;;;6.10;56.20;;;6.20;100.00;101107.28;6185361;23;20157;-62
2024/02/04 02:52:31;;;;;;;3.35;0.70;;;6.20;15.30;;;6.31;100.00;101115.00;6186077;23;20614;-64
2024/02/04 02:55:01;;;;;;;0.80;0.50;;;6.30;1.00;;;6.34;100.00;101117.34;6185840;23;20156;-63
2024/02/04 02:57:30;;;;;;;1.15;1.05;;;6.30;1.00;;;6.43;100.00;101111.00;6184806;23;20177;-65
2024/02/04 02:59:58;;;;;;;0.90;0.60;;;6.40;1.00;;;6.56;100.00;101102.38;6182752;23;20166;-65
2024/02/04 03:02:27;;;;;;;0.90;0.60;;;6.50;1.00;;;6.54;100.00;101105.22;6184869;23;20197;-65
2024/02/04 03:04:56;;;;;;;1.08;0.98;;;6.50;99.90;;;6.62;100.00;101099.03;6185157;23;20228;-66
2024/02/04 03:07:24;;;;;;;0.90;0.63;;;6.60;51.20;;;6.66;100.00;101097.66;6184699;23;20201;-65
2024/02/04 03:09:54;;;;;;;6.97;1.00;;;6.60;1.00;;;6.77;100.00;101093.78;6184931;23;20186;-66
2024/02/04 03:12:24;;;;;;;3.92;1.20;;;6.70;1.00;;;6.79;100.00;101108.72;6184968;23;20163;-66
2024/02/04 03:14:53;;;;;;;0.80;0.57;;;6.80;99.90;;;6.77;100.00;101099.16;6185005;23;20157;-66
2024/02/04 03:17:22;;;;;;;0.80;0.50;;;6.70;99.90;;;6.73;100.00;101095.94;6208220;23;20537;-64
2024/02/04 03:19:54;;;;;;;1.25;1.02;;;6.80;99.90;;;6.81;100.00;101095.09;6183153;23;20169;-64
2024/02/04 03:22:24;;;;;;;1.45;0.68;;;6.80;1.00;;;6.84;100.00;101102.81;6208557;23;20236;-64
2024/02/04 03:24:52;;;;;;;2.30;1.48;;;6.80;1.00;;;6.83;100.00;101101.97;6183212;23;20244;-66
2024/02/04 03:27:24;;;;;;;0.90;0.60;;;6.80;1.00;;;6.82;100.00;101094.94;6208100;23;20189;-64
2024/02/04 03:29:53;;;;;;;9.85;1.45;;;6.80;99.90;;;6.88;100.00;101096.06;6185118;23;20461;-66
2024/02/04 03:32:22;;;;;;;0.90;0.60;;;6.80;99.90;;;6.89;100.00;101097.75;6208064;23;20169;-64
2024/02/04 03:34:51;;;;;;;0.90;0.73;;;6.90;99.90;;;6.85;100.00;101085.66;6183162;23;20200;-65
2024/02/04 03:37:20;;;;;;;1.38;1.17;;;6.90;99.90;;;6.86;100.00;101076.59;6184578;23;20196;-59
2024/02/04 03:39:49;;;;;;;1.90;0.93;;;6.80;99.90;;;6.91;100.00;101084.97;6185800;23;20154;-65
2024/02/04 03:42:18;;;;;;;0.90;0.60;;;6.80;99.90;;;6.88;100.00;101075.38;6186064;23;20170;-65
2024/02/04 03:44:48;;;;;;;0.90;0.70;;;6.90;99.90;;;6.93;100.00;101080.25;6184113;23;20171;-64
2024/02/04 03:47:17;;;;;;;1.60;1.08;;;6.90;99.90;;;6.93;100.00;101078.41;6186084;23;20212;-65
2024/02/04 03:49:45;;;;;;;2.60;1.38;;;6.90;99.90;;;6.93;100.00;101077.56;6208962;23;20192;-65
2024/02/04 03:52:14;;;;;;;1.35;1.25;;;6.90;99.90;;;6.94;100.00;101079.25;6185754;23;20466;-66
2024/02/04 03:54:43;;;;;;;1.63;1.02;;;6.90;99.90;;;6.90;100.00;101067.16;6183361;23;20173;-63
2024/02/04 03:57:12;;;;;;;2.28;2.08;;;6.90;66.50;;;6.86;100.00;101074.75;6183450;23;20559;-63
2024/02/04 03:59:40;;;;;;;4.03;2.25;;;6.90;52.90;;;6.73;100.00;101071.75;6183778;23;20168;-65
2024/02/04 04:02:10;;;;;;;0.90;0.68;;;6.80;20.60;;;6.73;100.00;101066.34;6185079;23;20189;-64
2024/02/04 04:04:43;;;;;;;1.70;1.00;;;6.80;21.30;;;6.62;100.00;101053.31;6185991;23;20157;-64
2024/02/04 04:07:11;;;;;;;0.90;0.65;;;6.70;67.70;;;6.59;100.00;101066.22;6185834;23;20177;-63
2024/02/04 04:09:40;;;;;;;1.00;0.85;;;6.70;99.90;;;6.52;100.00;101053.50;6185629;23;20200;-65
2024/02/04 04:12:09;;;;;;;1.70;1.10;;;6.60;99.90;;;6.49;100.00;101058.34;6184750;23;20160;-64
2024/02/04 04:14:38;;;;;;;5.47;1.13;;;6.50;99.90;;;6.44;100.00;101045.44;6184642;23;20168;-63
2024/02/04 04:17:06;;;;;;;1.15;0.65;;;6.50;1.00;;;6.38;100.00;101048.00;6186752;23;20154;-65
2024/02/04 04:19:36;;;;;;;1.05;0.70;;;6.50;1.00;;;6.29;100.00;101036.41;6186956;23;20214;-66
2024/02/04 04:22:05;;;;;;;2.28;2.08;;;6.40;1.00;;;6.29;100.00;101031.03;6187127;23;20204;-65
2024/02/04 04:24:34;;;;;;;1.00;0.73;;;6.40;1.00;;;6.29;100.00;101035.59;6187459;23;20154;-65
2024/02/04 04:27:03;;;;;;;1.35;0.90;;;6.30;1.00;;;6.29;100.00;101031.03;6186775;23;20542;-65
2024/02/04 04:29:31;;;;;;;1.27;0.90;;;6.30;1.00;;;6.31;100.00;101029.00;6187095;23;20221;-65
2024/02/04 04:32:00;;;;;;;1.55;1.13;;;6.40;1.00;;;6.27;100.00;101024.16;6210250;23;20514;-63
2024/02/04 04:34:28;;;;;;;0.82;0.60;;;6.30;1.00;;;6.26;100.00;101031.38;6187026;23;20165;-64
2024/02/04 04:36:58;;;;;;;2.25;1.55;;;6.30;99.90;;;6.20;100.00;101026.66;6186284;23;20244;-63
2024/02/04 04:39:27;;;;;;;0.85;0.65;;;6.30;99.90;;;6.16;100.00;101030.72;6186571;23;20158;-65
2024/02/04 04:41:55;;;;;;;1.27;0.75;;;6.20;99.90;;;6.19;100.00;101038.44;6185959;23;20208;-65
2024/02/04 04:44:24;;;;;;;0.80;0.50;;;6.20;1.00;;;6.16;100.00;101033.41;6185531;23;20165;-65
2024/02/04 04:46:52;;;;;;;2.72;0.65;;;6.20;99.90;;;6.24;100.00;101028.03;6185131;23;20161;-65
2024/02/04 04:49:21;;;;;;;1.80;1.02;;;6.30;99.90;;;6.26;100.00;101028.69;6184902;23;20213;-64
2024/02/04 04:51:50;;;;;;;0.80;0.50;;;6.30;99.90;;;6.29;100.00;101020.28;6184430;23;20150;-65
2024/02/04 04:54:20;;;;;;;1.00;0.60;;;6.30;99.90;;;6.35;100.00;101024.13;6184565;23;20252;-64
2024/02/04 04:56:49;;;;;;;0.90;0.80;;;6.30;99.90;;;6.33;100.00;101018.94;6184364;23;20192;-66
2024/02/04 04:59:18;;;;;;;1.20;0.75;;;6.40;1.00;;;6.31;100.00;101010.19;6184447;23;20633;-64
2024/02/04 05:01:47;;;;;;;0.93;0.68;;;6.30;1.00;;;6.28;100.00;101012.41;6184247;23;20187;-66
2024/02/04 05:04:18;;;;;;;0.80;0.50;;;6.30;1.00;;;6.23;100.00;100995.94;6184644;23;20153;-63
2024/02/04 05:06:47;;;;;;;1.20;1.00;;;6.30;1.00;;;6.17;100.00;100997.47;6184851;23;20176;-64
2024/02/04 05:09:16;;;;;;;0.90;0.60;;;6.30;99.90;;;6.08;100.00;100995.81;6184225;23;20589;-65
2024/02/04 05:11:46;;;;;;;1.00;0.80;;;6.20;99.90;;;6.04;100.00;101000.69;6184306;23;20165;-64
2024/02/04 05:14:15;;;;;;;1.60;1.35;;;6.20;1.00;;;6.01;100.00;101001.00;6185411;23;20160;-65
2024/02/04 05:16:44;;;;;;;1.52;0.85;;;6.10;1.00;;;5.99;100.00;101000.34;6186250;23;20181;-65
2024/02/04 05:19:12;;;;;;;3.13;1.98;;;6.10;1.00;;;6.00;100.00;100988.56;6186062;23;20195;-66
2024/02/04 05:21:41;;;;;;;0.98;0.60;;;6.10;1.00;;;5.99;100.00;100991.47;6186180;23;20664;-65
2024/02/04 05:24:11;;;;;;;0.80;0.60;;;6.00;1.00;;;6.04;100.00;100984.56;6185960;23;20157;-65
2024/02/04 05:26:39;;;;;;;0.80;0.50;;;6.10;1.00;;;6.02;100.00;100985.72;6186003;23;20207;-65
2024/02/04 05:29:09;;;;;;;0.90;0.50;;;6.10;1.00;;;6.10;100.00;100973.13;6185806;23;20189;-65
2024/02/04 05:31:43;;;;;;;1.42;1.02;;;6.10;1.00;;;6.14;100.00;100973.63;6186349;23;20239;-66
2024/02/04 05:34:12;;;;;;;0.80;0.60;;;6.10;1.00;;;6.17;100.00;100978.66;6186102;23;20153;-64
2024/02/04 05:36:41;;;;;;;1.35;0.95;;;6.20;99.90;;;6.13;100.00;100977.31;6185854;23;20552;-64
2024/02/04 05:39:13;;;;;;;2.28;1.42;;;6.20;99.90;;;6.11;100.00;100971.28;6185901;23;20185;-63
2024/02/04 05:41:43;;;;;;;0.90;0.52;;;6.20;99.90;;;6.00;100.00;100966.28;6185726;23;20206;-66
2024/02/04 05:44:12;;;;;;;0.80;0.55;;;6.10;99.90;;;5.97;100.00;100970.13;6186087;23;20161;-64
2024/02/04 05:46:41;;;;;;;1.00;0.90;;;6.10;99.90;;;5.98;100.00;100968.28;6186311;23;20590;-63
2024/02/04 05:49:10;;;;;;;8.75;1.45;;;6.00;99.90;;;5.92;100.00;100966.28;6185574;23;20185;-64
2024/02/04 05:51:41;;;;;;;1.00;0.70;;;6.00;99.90;;;5.92;100.00;100979.69;6185908;23;20169;-65
2024/02/04 05:54:09;;;;;;;0.80;0.70;;;6.00;99.90;;;5.86;100.00;100980.34;6185569;23;20177;-61
2024/02/04 05:56:38;;;;;;;0.95;0.85;;;6.00;99.90;;;5.88;100.00;100984.56;6185836;23;20164;-64
2024/02/04 05:59:07;;;;;;;2.45;1.05;;;6.00;99.90;;;5.91;100.00;100975.34;6185541;23;20189;-64
2024/02/04 06:01:37;;;;;;;2.33;1.00;;;6.00;1.00;;;5.94;100.00;100980.38;6185621;23;20402;-62
2024/02/04 06:04:05;;;;;;;1.38;1.27;;;6.00;1.00;;;5.87;100.00;100971.31;6186092;23;20512;-65
2024/02/04 06:06:34;;;;;;;0.90;0.70;;;5.90;99.90;;;5.79;100.00;100984.72;6185712;23;20181;-63
2024/02/04 06:09:04;;;;;;;2.00;0.73;;;5.90;1.00;;;5.88;100.00;100995.31;6185448;23;20192;-66
2024/02/04 06:12:01;;;;;;;0.88;0.70;;;5.90;1.00;;;5.89;100.00;100997.00;6185763;23;20166;-64
2024/02/04 06:14:30;;;;;;;0.90;0.70;;;6.00;1.00;;;5.95;100.00;100985.59;6185830;23;20158;-65
2024/02/04 06:16:59;;;;;;;0.95;0.77;;;6.00;1.00;;;6.07;100.00;100994.13;6185157;23;20169;-64
2024/02/04 06:19:28;;;;;;;1.35;0.93;;;6.10;1.00;;;6.07;100.00;100989.59;6185438;23;20373;-65
2024/02/04 06:21:57;;;;;;;1.05;0.95;;;6.10;99.90;;;6.09;100.00;100986.75;6185782;23;20247;-63
2024/02/04 06:24:25;;;;;;;1.30;1.20;;;6.10;99.90;;;6.17;100.00;100994.78;6185697;23;20615;-64
2024/02/04 06:26:54;;;;;;;0.90;0.80;;;6.20;99.90;;;6.22;100.00;100996.94;6184832;23;20158;-65
2024/02/04 06:29:22;;;;;;;1.10;0.70;;;6.20;96.60;;;6.19;100.00;100995.47;6185334;23;20212;-64
2024/02/04 06:31:51;;;;;;;0.80;0.60;;;6.20;1.00;;;6.20;100.00;100999.78;6185585;23;20442;-65
2024/02/04 06:34:21;;;;;;;0.80;0.50;;;6.20;1.00;;;6.28;100.00;100991.72;6185446;23;20164;-64
2024/02/04 06:36:49;;;;;;;7.43;0.82;;;6.20;89.60;;;6.29;100.00;100997.94;6185604;23;20215;-65
2024/02/04 06:39:18;;;;;;;1.35;0.88;;;6.30;1.00;;;6.27;100.00;100991.91;6185460;23;20681;-64
2024/02/04 06:41:47;;;;;;;1.70;0.80;;;6.30;1.00;;;6.28;100.00;101007.03;6185666;23;20491;-65
2024/02/04 06:44:16;;;;;;;1.88;1.60;;;6.30;39.30;;;6.22;100.00;101005.84;6185381;23;20646;-64
2024/02/04 06:46:44;;;;;;;0.90;0.68;;;6.30;42.60;;;6.15;100.00;101012.91;6158945;23;20629;-66
2024/02/04 06:49:18;;;;;;;0.80;0.70;;;6.30;99.90;;;6.07;100.00;101011.09;6185428;23;20641;-65
2024/02/04 06:51:48;;;;;;;0.80;0.45;;;6.20;99.90;;;6.03;100.00;101003.53;6185739;23;20149;-66
2024/02/04 06:54:16;;;;;;;10.30;1.10;;;6.20;1.00;;;6.00;100.00;101001.19;6185590;23;20211;-63
2024/02/04 06:56:45;;;;;;;1.20;0.95;;;6.10;1.00;;;6.05;100.00;101013.09;6185700;23;20168;-65
2024/02/04 06:59:14;;;;;;;0.80;0.50;;;6.10;99.90;;;5.99;100.00;101000.34;6186126;23;20275;-66
2024/02/04 07:01:42;;;;;;;1.75;1.25;;;6.10;1.00;;;6.00;100.00;100995.81;6187066;23;20150;-65
2024/02/04 07:04:11;;;;;;;0.80;0.50;;;6.10;1.00;;;5.91;100.00;100991.44;6189144;23;20182;-66
2024/02/04 07:06:40;;;;;;;2.50;2.40;;;6.10;99.30;;;5.98;100.00;100979.88;6193082;23;20192;-65
2024/02/04 07:09:10;;;;;;;1.00;0.60;;;6.10;99.90;;;6.05;100.00;100991.59;6192724;23;20205;-65
2024/02/04 07:11:39;;;;;;;1.58;0.95;;;6.10;99.90;;;6.14;100.00;100984.38;6192575;23;20153;-66
2024/02/04 07:14:08;;;;;;;1.50;0.98;;;6.10;1.00;;;6.14;100.00;100984.38;6191199;23;20205;-66
2024/02/04 07:16:37;;;;;;;1.48;1.38;;;6.20;1.00;;;6.17;100.00;100989.41;6193111;23;20162;-66
2024/02/04 07:19:05;;;;;;;2.10;1.77;;;6.20;1.00;;;6.25;100.00;100975.09;6191508;23;20284;-65
2024/02/04 07:21:34;;;;;;;1.17;1.08;;;6.30;99.90;;;6.21;100.00;100969.22;6191393;23;20491;-66
2024/02/04 07:24:02;;;;;;;1.95;0.90;;;6.30;99.90;;;6.27;100.00;100965.88;6190388;23;20490;-66
2024/02/04 07:26:33;;;;;;;1.55;1.45;;;6.30;99.90;;;6.29;100.00;100961.16;6188855;23;20177;-66
2024/02/04 07:29:01;;;;;;;1.10;0.82;;;6.30;99.90;;;6.37;100.00;100966.50;6187707;23;20532;-69
2024/02/04 07:31:30;;;;;;;3.05;2.28;;;6.40;99.90;;;6.42;100.00;100965.97;6188212;23;20480;-66
2024/02/04 07:33:58;;;;;;;1.05;0.85;;;6.40;99.90;;;6.42;100.00;100964.13;6188061;23;20145;-64
2024/02/04 07:36:27;;;;;;;1.20;1.10;;;6.40;1.00;;;6.45;100.00;100962.94;6186960;23;20244;-66
2024/02/04 07:38:56;;;;;;;3.20;1.13;;;6.50;1.00;;;6.51;100.00;100959.56;6185114;23;20576;-67
2024/02/04 07:41:24;;;;;;;2.83;1.00;;;6.50;1.00;;;6.60;100.00;100957.66;6185685;23;20201;-65
2024/02/04 07:43:54;;;;;;;2.20;2.00;;;6.60;1.00;;;6.59;100.00;100950.59;6185562;23;20511;-66
2024/02/04 07:46:23;;;;;;;2.97;1.90;;;6.60;99.90;;;6.63;100.00;100951.97;6185751;23;20267;-66
2024/02/04 07:48:52;;;;;;;1.98;1.35;;;6.60;63.10;;;6.72;100.00;100945.53;6185413;23;20200;-64
2024/02/04 07:51:21;;;;;;;1.17;1.00;;;6.70;1.00;;;6.76;100.00;100926.16;6185560;23;20157;-63
2024/02/04 07:53:50;;;;;;;1.70;1.60;;;6.80;99.90;;;6.80;100.00;100924.81;6185612;23;20169;-65
2024/02/04 07:56:18;;;;;;;1.50;1.08;;;6.80;1.00;;;6.82;100.00;100919.25;6185307;23;20255;-63
2024/02/04 07:58:47;;;;;;;1.40;1.00;;;6.80;1.00;;;6.86;100.00;100924.09;6185459;23;20620;-65
2024/02/04 08:01:19;;;;;;;2.33;1.10;;;6.80;99.90;;;6.94;100.00;100923.19;6185881;23;20598;-63
2024/02/04 08:03:48;;;;;;;0.90;0.80;;;6.90;99.90;;;7.02;100.00;100920.44;6185273;23;20216;-63
2024/02/04 08:06:17;;;;;;;1.00;0.70;;;7.00;99.90;;;7.10;100.00;100928.47;6185021;23;20154;-64
2024/02/04 08:08:47;;;;;;;1.88;1.65;;;7.00;1.00;;;7.12;100.00;100928.28;6185159;23;20185;-63
2024/02/04 08:11:19;;;;;;;1.27;1.08;;;7.10;99.90;;;7.18;100.00;100927.56;6185217;23;20154;-63
2024/02/04 08:13:48;;;;;;;1.15;0.95;;;7.10;1.00;;;7.25;100.00;100915.09;6185230;23;20609;-64
2024/02/04 08:16:18;;;;;;;1.90;1.23;;;7.20;1.00;;;7.35;100.00;100921.91;6185522;23;20158;-64
2024/02/04 08:18:47;;;;;;;1.25;1.10;;;7.20;1.00;;;7.40;100.00;100924.06;6184955;23;20181;-65
2024/02/04 08:21:15;;;;;;;5.20;2.17;;;7.30;1.00;;;7.55;100.00;100926.78;6185428;23;20158;-64
2024/02/04 08:23:44;;;;;;;3.72;1.50;;;7.40;1.00;;;7.68;100.00;100921.63;6184719;23;20177;-64
2024/02/04 08:26:13;;;;;;;2.10;1.35;;;7.50;1.00;;;7.56;100.00;100928.44;6184960;23;20208;-65
2024/02/04 08:28:42;;;;;;;2.38;1.80;;;7.50;99.90;;;7.61;100.00;100923.34;6184127;23;20535;-64
2024/02/04 08:31:11;;;;;;;2.42;1.15;;;7.50;99.90;;;7.61;100.00;100910.72;6184607;23;20599;-63
2024/02/04 08:35:11;;;;;;;1.38;0.80;;;7.50;99.90;;;7.62;100.00;100908.88;6184508;23;20540;-63
2024/02/04 08:37:41;;;;;;;1.10;0.85;;;7.60;99.90;;;7.72;100.00;100898.66;6184733;23;20497;-65
2024/02/04 08:40:11;;;;;;;1.45;0.70;;;7.70;99.90;;;7.68;100.00;100905.44;6184449;23;20153;-64
2024/02/04 08:42:40;;;;;;;2.10;2.00;;;7.60;99.90;;;7.61;100.00;100907.19;6184722;23;20150;-65
2024/02/04 08:45:10;;;;;;;1.40;0.98;;;7.60;90.30;;;7.58;100.00;100894.09;6184411;23;20174;-65
2024/02/04 08:47:38;;;;;;;1.05;0.93;;;7.50;99.90;;;7.66;100.00;100894.84;6183947;23;20285;-64
2024/02/04 08:50:10;;;;;;;1.15;1.00;;;7.60;99.90;;;7.74;99.68;100892.09;6159808;23;20253;-63
2024/02/04 08:52:38;;;;;;;2.20;0.98;;;7.60;99.90;;;7.70;98.88;100887.22;6186352;23;20157;-64
2024/02/04 08:55:09;;;;;;;1.00;0.60;;;7.60;99.90;;;7.78;99.48;100896.09;6186379;23;20146;-64
2024/02/04 08:57:38;;;;;;;11.90;2.25;;;7.70;99.90;;;7.91;98.46;100895.44;6186983;23;20181;-66
2024/02/04 09:00:11;;;;;;;3.00;0.75;;;7.80;99.90;;;7.91;97.60;100887.34;6186968;23;20165;-61
2024/02/04 09:02:40;;;;;;;1.00;0.82;;;7.80;99.90;;;7.85;97.56;100885.41;6187112;23;20153;-64
2024/02/04 09:05:10;;;;;;;1.10;0.60;;;7.80;99.90;;;7.90;96.98;100883.00;6186681;23;20231;-62
2024/02/04 09:07:40;;;;;;;1.10;0.80;;;7.80;99.90;;;7.88;97.24;100885.03;6160101;23;20630;-65
2024/02/04 09:10:41;;;;;;;1.73;1.00;;;7.80;99.90;;;8.06;96.44;100882.81;6187000;23;20180;-58
2024/02/04 09:13:10;;;;;;;0.90;0.70;;;7.90;99.90;;;8.02;96.22;100884.22;6186573;23;20641;-63
2024/02/04 09:15:39;;;;;;;0.90;0.68;;;8.00;99.90;;;8.12;95.82;100887.47;6186816;23;20146;-64
2024/02/04 09:18:07;;;;;;;2.45;0.82;;;8.00;99.90;;;8.11;95.25;100885.78;6185737;23;20208;-62
2024/02/04 09:20:36;;;;;;;0.80;0.50;;;8.00;99.90;;;8.08;94.88;100878.09;6186014;23;20200;-65
2024/02/04 09:23:06;;;;;;;1.92;0.90;;;8.00;99.90;;;8.03;95.73;100888.59;6185910;23;20165;-65
2024/02/04 09:25:35;;;;;;;1.08;0.95;;;8.00;99.90;;;8.15;94.94;100881.69;6185659;23;20640;-63
2024/02/04 09:28:06;;;;;;;9.38;1.40;;;8.10;99.90;;;8.26;94.31;100889.31;6185893;23;20231;-63
2024/02/04 09:30:35;;;;;;;2.47;1.02;;;8.10;99.90;;;8.27;94.34;100884.75;6186306;23;20177;-64
2024/02/04 09:33:04;;;;;;;1.52;0.93;;;8.20;99.90;;;8.22;93.47;100897.97;6186101;23;20154;-65
2024/02/04 09:35:33;;;;;;;0.80;0.50;;;8.20;99.90;;;8.25;94.19;100882.25;6185952;23;20244;-63
2024/02/04 09:38:03;;;;;;;1.00;0.70;;;8.10;99.90;;;8.48;92.90;100884.84;6185836;23;20193;-65
2024/02/04 09:40:32;;;;;;;2.10;1.00;;;8.30;99.90;;;8.56;92.17;100895.53;6185774;23;20154;-64
2024/02/04 09:43:03;;;;;;;2.35;0.60;;;8.40;99.90;;;8.49;91.76;100900.00;6185925;23;20152;-64
2024/02/04 09:45:34;;;;;;;0.90;0.60;;;8.40;99.90;;;8.58;91.58;100887.25;6185620;23;20370;-65
2024/02/04 09:48:05;;;;;;;0.90;0.60;;;8.40;99.90;;;8.69;91.06;100886.75;6186323;23;20244;-66
2024/02/04 09:50:34;;;;;;;0.88;0.65;;;8.50;99.90;;;8.80;89.53;100886.28;6186082;23;20157;-66
2024/02/04 09:53:10;;;;;;;1.35;0.90;;;8.60;99.90;;;8.81;89.01;100876.31;6186800;23;20197;-64
2024/02/04 09:55:41;;;;;;;0.93;0.55;;;8.70;99.90;;;8.84;89.22;100875.94;6189714;23;20149;-64
2024/02/04 09:58:10;;;;;;;1.95;1.25;;;8.70;99.90;;;8.90;87.64;100867.91;6186942;23;20212;-59
2024/02/04 10:00:44;;;;;;;2.45;0.73;;;8.80;99.90;;;8.75;88.08;100869.81;6185574;23;20177;-66
2024/02/04 10:03:13;;;;;;;0.95;0.77;;;8.70;99.90;;;8.65;88.10;100866.59;6186214;23;20598;-66
2024/02/04 10:05:42;;;;;;;0.80;0.70;;;8.60;99.90;;;8.80;87.78;100866.53;6186133;23;20186;-64
2024/02/04 10:08:12;;;;;;;0.90;0.60;;;8.60;99.90;;;8.68;87.47;100871.59;6185638;23;20244;-64
2024/02/04 10:10:43;;;;;;;8.23;1.15;;;8.60;99.90;;;8.75;86.74;100861.72;6161665;23;20169;-65
2024/02/04 10:13:12;;;;;;;0.80;0.50;;;8.60;99.90;;;8.77;85.92;100870.44;6186117;23;20158;-64
2024/02/04 10:15:42;;;;;;;0.80;0.50;;;8.70;99.90;;;8.82;86.04;100865.31;6186421;23;20146;-66
2024/02/04 10:18:11;;;;;;;5.20;1.67;;;8.70;99.90;;;8.87;84.72;100865.56;6186254;23;20235;-65
2024/02/04 10:20:40;;;;;;;2.00;1.20;;;8.80;99.90;;;8.88;85.19;100861.00;6159931;23;20165;-66
2024/02/04 10:23:08;;;;;;;4.47;1.80;;;8.80;99.90;;;8.93;85.25;100851.31;6185947;23;20591;-65
2024/02/04 10:25:37;;;;;;;0.80;0.50;;;8.80;99.90;;;8.94;84.07;100850.31;6185709;23;20244;-65
2024/02/04 10:28:06;;;;;;;0.80;0.50;;;8.90;99.90;;;8.88;83.66;100855.63;6185811;23;20189;-65
2024/02/04 10:30:35;;;;;;;8.02;0.80;;;8.80;99.90;;;9.08;83.25;100845.84;6185917;23;20165;-65
2024/02/04 10:33:05;;;;;;;0.88;0.55;;;;;;;9.12;82.19;100839.88;6186818;23;20204;-67
2024/02/04 10:35:34;;;;;;;1.30;0.98;;;9.00;99.90;;;9.05;82.07;100838.16;6188102;23;20157;-65